Time;durP1;ratioP1;P1;durP2;ratioP2;P2;SDS_P1;SDS_P2;PMS_P1;PMS_P2;Temp;Humidity;BMP_temperature;BMP_pressure;BME280_temperature;BME280_humidity;BME280_pressure;Samples;Min_cycle;Max_cycle;Signal;HPM_P1;HPM_P2
2022/09/13 00:01:00;;;;;;;2.70;1.20;;;;;;;22.21;73.15;100618.84;7389078;19;20010;-78
2022/09/13 00:03:28;;;;;;;2.70;0.93;;;;;;;22.24;72.84;100623.75;7387946;19;20078;-78
2022/09/13 00:05:55;;;;;;;3.67;1.20;;;;;;;22.24;73.40;100623.75;7386395;19;20018;-79
2022/09/13 00:08:23;;;;;;;3.10;1.20;;;;;;;22.24;74.10;100621.91;7387538;19;20014;-78
2022/09/13 00:10:50;;;;;;;4.25;1.40;;;;;;;22.24;74.36;100619.22;7389006;19;20343;-78
2022/09/13 00:13:17;;;;;;;4.30;1.27;;;;;;;22.23;75.03;100633.66;7384871;19;20463;-78
2022/09/13 00:15:49;;;;;;;2.58;1.02;;;;;;;22.21;75.27;100642.97;7386519;19;20010;-79
2022/09/13 00:18:17;;;;;;;3.67;1.30;;;;;;;22.19;76.15;100643.22;7385990;19;20018;-79
2022/09/13 00:20:45;;;;;;;4.40;1.38;;;;;;;22.18;75.82;100639.75;7386025;19;20404;-79
2022/09/13 00:23:12;;;;;;;2.67;1.17;;;;;;;22.17;76.08;100642.66;7387571;19;20006;-78
2022/09/13 00:25:40;;;;;;;4.47;1.27;;;;;;;22.15;76.21;100644.72;7387858;19;20017;-78
2022/09/13 00:28:08;;;;;;;7.03;1.92;;;;;;;22.12;76.58;100642.53;7384536;19;20014;-78
2022/09/13 00:30:35;;;;;;;2.88;1.48;;;;;;;22.13;77.96;100650.34;7389461;19;20019;-78
2022/09/13 00:33:03;;;;;;;4.63;1.30;;;;;;;22.10;77.25;100644.59;7387420;19;20047;-79
2022/09/13 00:35:31;;;;;;;4.05;1.45;;;;;;;22.12;77.76;100655.94;7386505;19;20022;-77
2022/09/13 00:38:01;;;;;;;3.60;1.40;;;;;;;22.08;77.77;100650.22;7385360;19;20078;-79
2022/09/13 00:40:36;;;;;;;;;;;;;;;22.07;77.34;100656.63;7388239;19;20014;-76
2022/09/13 00:43:11;;;;;;;6.15;1.60;;;;;;;22.02;77.60;100658.38;7384741;19;19917;-78
2022/09/13 00:45:39;;;;;;;4.88;1.35;;;;;;;22.00;77.65;100649.72;7381681;19;20484;-78
2022/09/13 00:48:13;;;;;;;3.00;0.90;;;;;;;22.00;77.97;100653.22;7387690;19;20011;-78
2022/09/13 00:50:45;;;;;;;2.97;1.10;;;;;;;22.00;78.32;100645.19;7387462;19;20047;-77
2022/09/13 00:53:15;;;;;;;3.40;1.30;;;;;;;21.99;77.83;100656.97;7383433;19;20018;-78
2022/09/13 00:55:51;;;;;;;3.78;1.27;;;;;;;22.02;78.76;100642.28;7384678;19;20017;-78
2022/09/13 00:58:31;;;;;;;5.15;1.50;;;;;;;22.06;79.09;100643.44;7377707;19;20487;-78
2022/09/13 01:01:01;;;;;;;3.15;1.10;;;;;;;22.05;78.87;100644.50;7386893;19;20018;-78
2022/09/13 01:03:32;;;;;;;4.68;1.20;;;;;;;22.05;79.43;100639.13;7385917;19;20007;-79
2022/09/13 01:06:06;;;;;;;4.35;0.90;;;;;;;22.04;79.29;100641.03;7383577;19;20018;-78
2022/09/13 01:08:40;;;;;;;5.03;1.33;;;;;;;22.03;79.53;100642.06;7386162;19;20017;-78
2022/09/13 01:11:16;;;;;;;4.22;1.30;;;;;;;22.03;79.70;100635.88;7386481;19;20387;-79
2022/09/13 01:13:50;;;;;;;6.68;1.55;;;;;;;22.01;79.71;100633.44;7381980;19;20058;-78
2022/09/13 01:16:18;;;;;;;3.05;1.00;;;;;;;22.01;79.63;100624.56;7383814;19;20080;-78
2022/09/13 01:18:45;;;;;;;4.18;1.40;;;;;;;21.98;79.91;100631.22;7384295;19;20013;-78
2022/09/13 01:21:53;;;;;;;3.30;0.82;;;;;;;21.96;79.88;100621.78;7385737;19;20364;-78
2022/09/13 01:24:41;;;;;;;3.75;1.15;;;;;;;21.96;79.70;100625.28;7385267;19;20014;-78
2022/09/13 01:27:38;;;;;;;3.15;0.90;;;;;;;21.94;79.68;100622.00;7386155;19;20010;-78
2022/09/13 01:30:18;;;;;;;3.40;0.80;;;;;;;21.92;79.92;100624.06;7385457;19;20145;-78
2022/09/13 01:33:01;;;;;;;4.22;0.73;;;;;;;21.91;80.10;100629.66;7385669;19;20028;-77
2022/09/13 01:35:51;;;;;;;3.15;0.63;;;;;;;21.87;80.38;100625.81;7382445;19;20015;-78
2022/09/13 01:38:34;;;;;;;2.00;0.60;;;;;;;21.87;80.10;100633.84;7384608;19;20086;-78
2022/09/13 01:41:22;;;;;;;2.33;0.80;;;;;;;21.83;80.65;100628.16;7387824;19;20010;-78
2022/09/13 01:43:56;;;;;;;3.15;0.70;;;;;;;21.84;81.08;100626.28;7381602;19;20416;-77
2022/09/13 01:46:35;;;;;;;4.10;0.63;;;;;;;21.80;80.83;100628.59;7379825;19;20078;-78
2022/09/13 01:49:32;;;;;;;3.13;0.90;;;;;;;21.78;81.41;100630.72;7379027;19;21605;-80
2022/09/13 01:52:11;;;;;;;3.08;0.93;;;;;;;21.77;81.27;100629.06;7384328;19;20476;-77
2022/09/13 01:54:53;;;;;;;2.75;0.90;;;;;;;21.70;81.67;100629.16;7381293;19;20410;-77
2022/09/13 01:57:48;;;;;;;5.07;0.93;;;;;;;21.68;82.34;100625.94;7381569;19;20095;-78
2022/09/13 02:00:17;;;;;;;4.18;0.75;;;;;;;21.63;82.55;100620.44;7384357;19;20098;-78
2022/09/13 02:02:56;;;;;;;4.43;0.90;;;;;;;21.61;83.06;100613.66;7384147;19;20173;-78
2022/09/13 02:05:36;;;;;;;3.25;0.80;;;;;;;21.58;83.24;100609.59;7383831;19;20036;-78
2022/09/13 02:08:09;;;;;;;2.10;0.88;;;;;;;21.58;83.08;100619.50;7384486;19;20467;-78
2022/09/13 02:11:25;;;;;;;3.80;1.23;;;;;;;21.56;83.31;100613.53;7389777;19;20505;-78
2022/09/13 02:14:15;;;;;;;5.47;2.88;;;;;;;21.52;83.72;100615.88;7385582;19;20669;-78
2022/09/13 02:16:49;;;;;;;3.80;1.23;;;;;;;21.46;84.06;100613.28;7369450;19;20010;-77
2022/09/13 02:19:23;;;;;;;4.40;1.00;;;;;;;21.45;84.33;100612.47;7385964;19;20531;-77
2022/09/13 02:21:59;;;;;;;5.53;1.38;;;;;;;21.44;84.21;100618.88;7392686;19;20029;-77
2022/09/13 02:24:39;;;;;;;6.10;1.27;;;;;;;21.43;84.00;100621.78;7391342;19;20018;-78
2022/09/13 02:27:14;;;;;;;4.15;1.13;;;;;;;21.41;84.39;100613.97;7392629;19;20015;-78
2022/09/13 02:29:44;;;;;;;5.28;1.70;;;;;;;21.37;84.42;100618.16;7391301;19;20475;-78
2022/09/13 02:32:25;;;;;;;3.42;1.08;;;;;;;21.40;85.40;100622.22;7391855;19;20418;-78
2022/09/13 02:35:00;;;;;;;4.38;1.15;;;;;;;21.36;84.77;100613.84;7388595;19;20022;-78
2022/09/13 02:37:31;;;;;;;5.57;1.40;;;;;;;21.34;84.92;100616.75;7392516;19;20036;-77
2022/09/13 02:40:06;;;;;;;3.58;1.02;;;;;;;21.32;85.09;100615.34;7390417;19;20154;-79
2022/09/13 02:42:42;;;;;;;3.28;1.23;;;;;;;21.35;84.20;100614.88;7390028;19;20018;-78
2022/09/13 02:45:13;;;;;;;3.08;1.73;;;;;;;21.31;84.90;100613.72;7385717;19;20018;-77
2022/09/13 02:47:52;;;;;;;3.65;1.17;;;;;;;21.26;84.74;100616.25;7386985;19;20007;-77
2022/09/13 02:50:31;;;;;;;6.30;2.17;;;;;;;21.20;85.03;100625.19;7390905;19;20011;-78
2022/09/13 02:52:58;;;;;;;3.88;1.67;;;;;;;21.18;85.36;100629.97;7389964;19;20011;-77
2022/09/13 02:56:07;;;;;;;3.53;1.42;;;;;;;21.17;85.26;100626.47;7390790;19;20012;-78
2022/09/13 02:58:48;;;;;;;3.72;1.70;;;;;;;21.12;86.14;100622.81;7381981;19;20015;-78
2022/09/13 03:01:20;;;;;;;5.32;1.90;;;;;;;21.05;86.08;100622.09;7390341;19;20118;-78
2022/09/13 03:03:48;;;;;;;6.80;1.90;;;;;;;20.98;86.66;100627.50;7388054;19;20026;-78
2022/09/13 03:06:26;;;;;;;3.90;2.08;;;;;;;21.01;86.91;100615.56;7388084;19;20044;-78
2022/09/13 03:08:58;;;;;;;3.05;1.80;;;;;;;20.93;87.02;100625.50;7389706;19;20698;-78
2022/09/13 03:11:46;;;;;;;3.37;1.40;;;;;;;20.89;87.47;100627.00;7388833;19;20014;-78
2022/09/13 03:14:30;;;;;;;3.53;1.67;;;;;;;20.87;87.38;100626.44;7384311;19;20357;-77
2022/09/13 03:17:19;;;;;;;5.18;2.03;;;;;;;20.88;87.27;100622.69;7387244;19;20040;-77
2022/09/13 03:19:55;;;;;;;3.88;2.40;;;;;;;20.80;87.46;100630.22;7385292;19;20346;-79
2022/09/13 03:22:32;;;;;;;3.83;2.28;;;;;;;20.78;88.28;100625.09;7385625;19;20020;-77
2022/09/13 03:24:59;;;;;;;4.85;2.28;;;;;;;20.74;88.06;100629.25;7389327;19;20039;-79
2022/09/13 03:27:37;;;;;;;4.85;3.03;;;;;;;20.70;88.19;100627.25;7387118;19;20019;-78
2022/09/13 03:30:07;;;;;;;6.80;3.45;;;;;;;20.70;88.07;100633.44;7389501;19;20515;-79
2022/09/13 03:32:47;;;;;;;7.35;4.05;;;;;;;20.69;88.48;100626.44;7388854;19;20480;-78
2022/09/13 03:35:14;;;;;;;6.25;3.60;;;;;;;20.65;88.22;100624.44;7388249;19;20025;-78
2022/09/13 03:37:53;;;;;;;5.20;3.53;;;;;;;20.61;88.36;100634.78;7391333;19;20011;-78
2022/09/13 03:40:43;;;;;;;9.43;5.50;;;;;;;20.62;88.45;100639.06;7388399;19;20022;-78
2022/09/13 03:43:46;;;;;;;6.18;4.03;;;;;;;20.58;88.91;100645.91;7385131;19;20359;-79
2022/09/13 03:46:43;;;;;;;7.10;5.05;;;;;;;20.60;89.24;100651.03;7385192;19;20516;-78
2022/09/13 03:49:31;;;;;;;7.82;5.05;;;;;;;20.59;88.97;100655.56;7385001;19;20465;-78
2022/09/13 03:51:59;;;;;;;6.80;4.90;;;;;;;20.60;88.82;100656.38;7388150;19;20007;-78
2022/09/13 03:54:31;;;;;;;6.57;4.25;;;;;;;20.61;88.93;100656.16;7387026;19;20434;-78
2022/09/13 03:57:11;;;;;;;7.30;5.28;;;;;;;20.61;88.58;100653.50;7386849;19;20020;-76
2022/09/13 04:00:00;;;;;;;6.25;4.75;;;;;;;20.63;88.56;100648.72;7385684;19;20025;-78
2022/09/13 04:02:28;;;;;;;6.25;4.55;;;;;;;20.62;88.81;100651.66;7385522;19;20042;-79
2022/09/13 04:04:55;;;;;;;6.82;4.97;;;;;;;20.66;87.90;100642.13;7385147;19;20018;-79
2022/09/13 04:07:24;;;;;;;7.05;4.80;;;;;;;20.62;88.32;100649.75;7387728;19;20584;-79
2022/09/13 04:09:51;;;;;;;6.63;4.90;;;;;;;20.57;88.18;100638.13;7387983;19;20027;-79
2022/09/13 04:12:19;;;;;;;6.50;4.43;;;;;;;20.55;88.44;100642.88;7383199;19;20015;-78
2022/09/13 04:14:47;;;;;;;7.00;4.60;;;;;;;20.53;88.43;100650.28;7385226;19;20325;-77
2022/09/13 04:17:18;;;;;;;6.57;4.20;;;;;;;20.50;89.25;100651.56;7383824;19;20018;-77
2022/09/13 04:19:59;;;;;;;4.80;3.78;;;;;;;20.52;88.82;100664.72;7383893;19;20543;-77
2022/09/13 04:22:44;;;;;;;5.13;3.75;;;;;;;20.52;88.15;100670.84;7386338;19;20014;-77
2022/09/13 04:25:34;;;;;;;4.50;3.55;;;;;;;20.52;88.52;100678.88;7386092;19;20014;-79
2022/09/13 04:28:13;;;;;;;5.72;4.38;;;;;;;20.55;87.90;100688.31;7383752;19;20591;-79
2022/09/13 04:30:45;;;;;;;7.45;5.47;;;;;;;20.54;88.04;100684.81;7383483;19;20490;-79
2022/09/13 04:33:16;;;;;;;5.53;4.75;;;;;;;20.52;87.68;100673.53;7386922;19;20032;-77
2022/09/13 04:35:43;;;;;;;9.23;6.13;;;;;;;20.52;87.64;100678.88;7386685;19;21436;-78
2022/09/13 04:38:10;;;;;;;6.88;5.43;;;;;;;20.54;86.45;100690.19;7386165;19;20046;-78
2022/09/13 04:40:39;;;;;;;8.00;5.88;;;;;;;20.52;86.44;100694.13;7385272;19;20007;-78
2022/09/13 04:43:10;;;;;;;7.55;5.53;;;;;;;20.51;86.41;100697.84;7382721;19;20084;-77
2022/09/13 04:45:39;;;;;;;7.43;5.18;;;;;;;20.46;86.97;100695.81;7385876;19;20500;-78
2022/09/13 04:48:07;;;;;;;7.57;6.00;;;;;;;20.45;86.78;100689.66;7384112;19;20481;-79
2022/09/13 04:50:34;;;;;;;9.82;6.55;;;;;;;20.53;86.51;100695.72;7383939;19;20036;-78
2022/09/13 04:53:01;;;;;;;10.23;6.70;;;;;;;20.49;85.84;100695.38;7384262;19;20015;-79
2022/09/13 04:55:29;;;;;;;7.45;6.70;;;;;;;20.48;85.78;100686.53;7384947;19;20133;-78
2022/09/13 04:57:56;;;;;;;9.98;6.90;;;;;;;20.41;86.26;100693.00;7384512;19;20014;-78
2022/09/13 05:00:25;;;;;;;8.60;6.30;;;;;;;20.33;86.72;100683.38;7382569;19;20485;-78
2022/09/13 05:02:55;;;;;;;9.60;6.82;;;;;;;20.31;87.07;100695.34;7385432;19;20017;-76
2022/09/13 05:05:24;;;;;;;8.35;6.68;;;;;;;20.30;86.35;100699.84;7382464;19;20014;-78
2022/09/13 05:07:52;;;;;;;8.68;6.78;;;;;;;20.22;86.72;100694.75;7384857;19;20948;-78
2022/09/13 05:10:19;;;;;;;10.77;7.80;;;;;;;20.21;86.84;100695.00;7385443;19;20014;-79
2022/09/13 05:12:47;;;;;;;10.60;6.50;;;;;;;20.16;86.90;100695.66;7382665;19;20494;-78
2022/09/13 05:15:14;;;;;;;9.45;6.93;;;;;;;20.12;87.72;100698.97;7384175;19;20427;-79
2022/09/13 05:17:41;;;;;;;9.63;7.07;;;;;;;20.11;87.97;100698.16;7384086;19;20010;-78
2022/09/13 05:20:09;;;;;;;9.90;6.68;;;;;;;20.13;87.25;100696.06;7380757;19;20027;-79
2022/09/13 05:22:37;;;;;;;9.07;6.97;;;;;;;20.15;87.34;100687.84;7386017;19;20025;-78
2022/09/13 05:25:05;;;;;;;8.93;6.70;;;;;;;20.15;87.51;100698.53;7385699;19;20070;-78
2022/09/13 05:27:32;;;;;;;9.32;7.60;;;;;;;20.15;87.04;100694.00;7382343;19;20102;-78
2022/09/13 05:29:59;;;;;;;10.65;7.40;;;;;;;20.15;86.84;100702.03;7385444;19;20377;-78
2022/09/13 05:32:26;;;;;;;9.63;6.65;;;;;;;20.14;86.52;100696.91;7383625;19;20019;-77
2022/09/13 05:34:54;;;;;;;9.60;7.03;;;;;;;20.12;86.99;100693.63;7382109;19;20417;-78
2022/09/13 05:37:21;;;;;;;8.40;6.68;;;;;;;20.11;86.70;100692.00;7385203;19;21058;-78
2022/09/13 05:39:49;;;;;;;9.38;7.47;;;;;;;20.08;87.04;100686.03;7385132;19;20022;-84
2022/09/13 05:42:36;;;;;;;11.07;7.30;;;;;;;20.12;86.96;100680.25;7385435;19;20050;-83
2022/09/13 05:45:05;;;;;;;9.95;7.32;;;;;;;20.08;87.00;100694.06;7382881;19;20014;-82
2022/09/13 05:47:32;;;;;;;11.57;7.38;;;;;;;20.08;87.00;100690.56;7387323;19;20006;-82
2022/09/13 05:50:00;;;;;;;9.73;7.50;;;;;;;20.11;87.24;100692.00;7385380;19;20329;-81
2022/09/13 05:52:37;;;;;;;8.27;6.68;;;;;;;20.07;87.01;100696.94;7388074;19;20307;-83
2022/09/13 05:55:05;;;;;;;7.93;6.72;;;;;;;20.04;87.35;100694.72;7390234;19;20026;-83
2022/09/13 05:57:32;;;;;;;9.23;6.90;;;;;;;20.01;87.70;100679.94;7386556;19;20010;-83
2022/09/13 05:59:59;;;;;;;10.32;7.40;;;;;;;20.03;88.00;100688.56;7387463;19;20039;-83
2022/09/13 06:02:26;;;;;;;7.63;5.30;;;;;;;20.02;87.56;100689.59;7388263;19;20314;-82
2022/09/13 06:04:54;;;;;;;7.55;5.07;;;;;;;20.00;86.78;100689.00;7386177;19;20330;-82
2022/09/13 06:07:21;;;;;;;7.65;3.80;;;;;;;19.97;87.02;100684.06;7387840;19;20018;-82
2022/09/13 06:09:48;;;;;;;5.53;3.58;;;;;;;19.97;85.79;100691.28;7386146;19;20010;-83
2022/09/13 06:12:15;;;;;;;5.05;3.08;;;;;;;19.95;85.40;100683.50;7385257;19;20011;-83
2022/09/13 06:14:43;;;;;;;7.13;3.70;;;;;;;19.92;85.72;100694.59;7385949;19;20022;-83
2022/09/13 06:17:10;;;;;;;7.47;2.80;;;;;;;19.94;83.91;100700.56;7388039;19;20570;-82
2022/09/13 06:19:38;;;;;;;6.07;3.47;;;;;;;19.88;83.80;100698.75;7386206;19;20010;-81
2022/09/13 06:22:05;;;;;;;5.93;2.78;;;;;;;19.83;83.97;100695.91;7384559;19;20396;-82
2022/09/13 06:24:36;;;;;;;4.30;2.38;;;;;;;19.76;83.46;100694.31;7386717;19;20609;-81
2022/09/13 06:27:05;;;;;;;4.95;2.72;;;;;;;19.66;83.02;100692.09;7383448;19;20043;-80
2022/09/13 06:29:33;;;;;;;7.50;2.70;;;;;;;19.59;83.21;100696.69;7387575;19;20022;-81
2022/09/13 06:32:02;;;;;;;4.35;2.28;;;;;;;19.56;82.98;100695.25;7385681;19;20015;-80
2022/09/13 06:34:34;;;;;;;4.28;2.15;;;;;;;19.56;83.77;100691.75;7388495;19;20353;-83
2022/09/13 06:37:04;;;;;;;5.35;1.98;;;;;;;19.59;81.79;100697.50;7388715;19;20023;-82
2022/09/13 06:39:33;;;;;;;1.98;1.00;;;;;;;19.59;79.93;100694.84;7385484;19;20406;-81
2022/09/13 06:42:00;;;;;;;3.70;1.17;;;;;;;19.62;78.89;100694.41;7386230;19;20026;-82
2022/09/13 06:44:28;;;;;;;2.17;1.20;;;;;;;19.60;78.81;100699.16;7383853;19;20026;-82
2022/09/13 06:46:55;;;;;;;2.70;1.20;;;;;;;19.62;79.43;100698.91;7385479;19;20393;-80
2022/09/13 06:49:23;;;;;;;4.60;1.60;;;;;;;19.57;79.15;100694.22;7386867;19;20007;-83
2022/09/13 06:51:50;;;;;;;2.03;1.02;;;;;;;19.53;79.72;100698.38;7382948;19;20023;-83
2022/09/13 06:54:18;;;;;;;3.45;1.25;;;;;;;19.52;79.90;100685.22;7386525;19;20261;-82
2022/09/13 06:56:46;;;;;;;5.68;1.67;;;;;;;19.52;80.09;100693.22;7389816;19;20014;-82
2022/09/13 06:59:14;;;;;;;3.47;1.50;;;;;;;19.55;80.73;100690.97;7390053;19;20018;-81
2022/09/13 07:01:45;;;;;;;4.20;1.42;;;;;;;19.51;80.74;100691.59;7393620;19;20583;-82
2022/09/13 07:04:17;;;;;;;2.90;1.10;;;;;;;19.46;81.26;100689.56;7391726;19;20022;-83
2022/09/13 07:06:47;;;;;;;2.38;1.25;;;;;;;19.41;81.34;100692.03;7392236;19;20014;-83
2022/09/13 07:09:18;;;;;;;2.55;1.10;;;;;;;19.36;78.73;100691.84;7394399;19;20364;-83
2022/09/13 07:11:48;;;;;;;2.78;0.98;;;;;;;19.38;77.88;100694.31;7394068;19;20031;-81
2022/09/13 07:14:18;;;;;;;2.55;0.70;;;;;;;19.35;77.59;100684.06;7389314;19;20054;-82
2022/09/13 07:16:47;;;;;;;2.13;0.93;;;;;;;19.34;78.19;100687.78;7394043;19;20009;-83
2022/09/13 07:19:23;;;;;;;5.32;0.80;;;;;;;19.37;77.62;100687.34;7393913;19;20331;-78
2022/09/13 07:21:51;;;;;;;3.10;0.80;;;;;;;19.35;77.29;100678.75;7396087;19;20464;-83
2022/09/13 07:24:20;;;;;;;2.90;0.77;;;;;;;19.34;78.47;100679.75;7392900;19;20419;-81
2022/09/13 07:26:49;;;;;;;3.42;0.82;;;;;;;19.31;77.35;100681.00;7394646;19;20018;-83
2022/09/13 07:29:21;;;;;;;2.78;1.20;;;;;;;19.29;74.27;100680.41;7390180;19;20010;-83
2022/09/13 07:31:53;;;;;;;2.58;0.50;;;;;;;19.07;73.99;100679.06;7390518;19;20086;-81
2022/09/13 07:34:25;;;;;;;1.40;0.60;;;;;;;18.95;75.07;100678.91;7389995;19;20015;-83
2022/09/13 07:36:52;;;;;;;5.28;0.70;;;;;;;18.91;74.64;100676.88;7392179;19;20022;-82
2022/09/13 07:39:20;;;;;;;3.50;0.65;;;;;;;18.82;75.21;100676.28;7390645;19;20021;-82
2022/09/13 07:41:49;;;;;;;4.95;0.90;;;;;;;18.78;76.02;100673.25;7392497;19;20023;-81
2022/09/13 07:44:16;;;;;;;4.95;2.28;;;;;;;18.76;75.77;100675.28;7388114;19;20421;-82
2022/09/13 07:46:43;;;;;;;4.65;1.10;;;;;;;18.74;75.60;100669.31;7392994;19;20495;-82
2022/09/13 07:49:12;;;;;;;4.50;1.15;;;;;;;18.76;75.22;100664.63;7387942;19;20015;-83
2022/09/13 07:51:41;;;;;;;4.47;0.88;;;;;;;18.77;74.88;100682.25;7386715;19;20014;-82
2022/09/13 07:54:13;;;;;;;5.85;1.10;;;;;;;18.74;74.79;100680.00;7388044;19;20038;-82
2022/09/13 07:56:41;;;;;;;3.65;0.90;;;;;;;18.72;74.53;100690.06;7389382;19;20018;-80
2022/09/13 07:59:13;;;;;;;4.45;0.93;;;;;;;18.78;74.15;100688.41;7387761;19;20033;-81
2022/09/13 08:01:50;;;;;;;2.83;1.05;;;;;;;18.69;74.06;100681.69;7392207;19;20021;-82
2022/09/13 08:04:22;;;;;;;2.15;0.90;;;;;;;18.63;73.96;100685.19;7386418;19;20022;-81
2022/09/13 08:06:49;;;;;;;5.35;0.80;;;;;;;18.55;74.76;100683.53;7392747;19;20007;-82
2022/09/13 08:09:17;;;;;;;5.18;1.17;;;;;;;18.47;74.96;100683.75;7385642;19;20045;-81
2022/09/13 08:11:47;;;;;;;4.03;1.00;;;;;;;18.46;75.42;100675.94;7389320;19;20425;-82
2022/09/13 08:14:17;;;;;;;6.30;1.50;;;;;;;18.44;75.83;100691.34;7386472;19;20025;-82
2022/09/13 08:16:44;;;;;;;3.83;1.20;;;;;;;18.43;75.19;100681.69;7388213;19;20010;-81
2022/09/13 08:19:15;;;;;;;6.60;1.20;;;;;;;18.38;75.71;100683.16;7387982;19;20014;-82
2022/09/13 08:21:43;;;;;;;4.43;0.80;;;;;;;18.37;76.27;100678.00;7389889;19;20007;-82
2022/09/13 08:24:18;;;;;;;3.85;1.33;;;;;;;18.41;76.03;100678.41;7387908;19;20014;-81
2022/09/13 08:26:45;;;;;;;7.05;1.05;;;;;;;18.37;76.66;100680.69;7390583;19;20510;-82
2022/09/13 08:29:13;;;;;;;6.93;1.42;;;;;;;18.39;76.38;100678.59;7384828;19;20002;-82
2022/09/13 08:31:40;;;;;;;4.22;1.25;;;;;;;18.44;75.77;100684.13;7390805;19;20021;-82
2022/09/13 08:34:13;;;;;;;6.47;1.60;;;;;;;18.45;75.97;100687.63;7388612;19;20376;-81
2022/09/13 08:36:40;;;;;;;8.80;3.10;;;;;;;18.39;76.68;100690.09;7389326;19;20547;-83
2022/09/13 08:39:09;;;;;;;5.95;1.48;;;;;;;18.37;77.55;100678.84;7387402;19;20044;-81
2022/09/13 08:41:58;;;;;;;5.25;1.55;;;;;;;18.44;76.53;100686.81;7390390;19;20030;-81
2022/09/13 08:44:39;;;;;;;5.78;1.45;;;;;;;18.46;76.35;100686.59;7385962;19;20018;-82
2022/09/13 08:48:20;;;;;;;7.75;1.42;;;;;;;18.51;75.95;100692.13;7386944;19;20014;-80
2022/09/13 08:50:52;;;;;;;6.45;1.08;;;;;;;18.51;76.30;100690.28;7383336;19;20504;-82
2022/09/13 08:53:29;;;;;;;3.45;0.95;;;;;;;18.61;75.43;100684.56;7382346;19;20011;-83
2022/09/13 08:56:04;;;;;;;3.85;1.05;;;;;;;18.61;75.47;100682.72;7385943;19;20006;-83
2022/09/13 08:58:48;;;;;;;4.82;1.20;;;;;;;18.62;75.28;100683.53;7387522;19;20021;-82
2022/09/13 09:01:30;;;;;;;2.78;1.25;;;;;;;18.62;74.95;100678.19;7389705;19;20026;-80
2022/09/13 09:04:17;;;;;;;4.53;1.38;;;;;;;18.61;74.45;100688.03;7387925;19;20483;-84
2022/09/13 09:06:44;;;;;;;8.27;1.52;;;;;;;18.59;74.76;100686.63;7386168;19;20053;-83
2022/09/13 09:09:20;;;;;;;7.03;1.40;;;;;;;18.55;74.88;100683.53;7384091;19;20014;-81
2022/09/13 09:11:54;;;;;;;5.32;1.05;;;;;;;18.54;75.26;100681.09;7385639;19;20019;-81
2022/09/13 09:14:30;;;;;;;4.68;1.25;;;;;;;18.54;75.78;100681.88;7384131;19;20047;-81
2022/09/13 09:17:04;;;;;;;3.58;1.45;;;;;;;18.55;76.08;100680.03;7388641;19;20036;-83
2022/09/13 09:19:39;;;;;;;5.25;0.98;;;;;;;18.52;75.88;100672.44;7385906;19;20006;-80
2022/09/13 09:22:17;;;;;;;4.32;1.00;;;;;;;18.56;75.85;100679.84;7388808;19;20018;-81
2022/09/13 09:24:48;;;;;;;4.00;0.90;;;;;;;18.59;76.13;100667.97;7389544;19;20034;-83
2022/09/13 09:27:18;;;;;;;5.25;0.93;;;;;;;18.61;75.77;100669.38;7388658;19;20018;-81
2022/09/13 09:30:03;;;;;;;4.85;1.00;;;;;;;18.63;76.40;100666.50;7389292;19;20002;-80
2022/09/13 09:32:59;;;;;;;4.00;0.77;;;;;;;18.64;76.15;100666.28;7390831;19;20054;-81
2022/09/13 09:35:45;;;;;;;3.38;1.00;;;;;;;18.68;75.69;100653.38;7387739;19;20468;-82
2022/09/13 09:38:31;;;;;;;7.53;2.35;;;;;;;18.69;76.79;100655.81;7389582;19;20014;-81
2022/09/13 09:41:04;;;;;;;4.28;1.30;;;;;;;18.74;76.06;100648.00;7387574;19;20022;-82
2022/09/13 09:43:44;;;;;;;3.60;0.70;;;;;;;18.76;76.28;100651.28;7386487;19;20090;-82
2022/09/13 09:46:14;;;;;;;3.70;1.00;;;;;;;18.77;76.37;100647.59;7389286;19;20388;-80
2022/09/13 09:48:53;;;;;;;3.50;0.85;;;;;;;18.84;76.02;100652.09;7390116;19;20017;-81
2022/09/13 09:51:24;;;;;;;3.33;0.98;;;;;;;18.85;76.16;100648.38;7389212;19;20070;-82
2022/09/13 09:54:00;;;;;;;4.82;1.10;;;;;;;18.87;76.45;100646.31;7381392;19;20036;-82
2022/09/13 09:56:32;;;;;;;4.78;1.30;;;;;;;18.90;76.36;100653.88;7388232;19;20015;-81
2022/09/13 09:58:59;;;;;;;4.05;1.02;;;;;;;18.93;76.05;100662.31;7385557;19;20357;-82
2022/09/13 10:01:36;;;;;;;3.83;1.05;;;;;;;18.92;76.27;100671.34;7384262;19;20011;-82
2022/09/13 10:04:07;;;;;;;3.67;1.17;;;;;;;18.93;77.28;100664.16;7383548;19;20378;-82
2022/09/13 10:06:38;;;;;;;4.05;1.25;;;;;;;18.97;76.60;100665.38;7384425;19;20464;-82
2022/09/13 10:09:16;;;;;;;7.43;1.55;;;;;;;19.01;77.68;100667.41;7384083;19;20022;-81
2022/09/13 10:11:51;;;;;;;3.58;1.02;;;;;;;19.03;77.09;100676.00;7386107;19;20375;-81
2022/09/13 10:14:33;;;;;;;3.58;1.08;;;;;;;19.07;76.60;100679.06;7383734;19;20014;-82
2022/09/13 10:17:12;;;;;;;5.13;1.00;;;;;;;19.09;76.49;100679.69;7387583;19;20025;-82
2022/09/13 10:19:40;;;;;;;4.78;1.67;;;;;;;19.15;76.17;100684.97;7384768;19;20025;-81
2022/09/13 10:22:11;;;;;;;7.85;1.40;;;;;;;19.16;76.20;100696.47;7385044;19;20014;-80
2022/09/13 10:24:39;;;;;;;3.90;1.13;;;;;;;19.12;76.53;100692.59;7384694;19;20018;-80
2022/09/13 10:27:29;;;;;;;5.25;1.35;;;;;;;19.06;76.94;100698.75;7384705;19;20014;-82
2022/09/13 10:29:59;;;;;;;4.00;1.20;;;;;;;19.03;76.76;100696.53;7385906;19;20043;-81
2022/09/13 10:32:27;;;;;;;6.53;1.30;;;;;;;19.00;77.29;100700.41;7391849;19;20418;-82
2022/09/13 10:34:56;;;;;;;7.00;1.20;;;;;;;18.99;77.57;100706.00;7391191;19;20023;-83
2022/09/13 10:37:30;;;;;;;3.45;1.13;;;;;;;19.00;78.31;100710.28;7393826;19;20010;-81
2022/09/13 10:40:07;;;;;;;6.70;1.67;;;;;;;19.02;78.14;100708.22;7393782;19;20014;-82
2022/09/13 10:42:35;;;;;;;9.18;1.88;;;;;;;19.06;78.37;100715.59;7389917;19;20021;-82
2022/09/13 10:45:05;;;;;;;5.57;1.67;;;;;;;19.13;77.22;100718.25;7392792;19;20014;-82
2022/09/13 10:47:36;;;;;;;3.25;1.48;;;;;;;19.12;77.69;100717.41;7393752;19;20375;-82
2022/09/13 10:50:20;;;;;;;8.02;1.30;;;;;;;19.17;78.14;100717.59;7391433;19;20370;-82
2022/09/13 10:52:50;;;;;;;10.65;1.13;;;;;;;19.22;78.43;100725.78;7391923;19;20006;-82
2022/09/13 10:55:19;;;;;;;3.97;1.10;;;;;;;19.21;79.08;100720.66;7388193;19;20025;-81
2022/09/13 10:57:52;;;;;;;3.85;1.88;;;;;;;19.21;79.80;100720.66;7391361;19;20021;-81
2022/09/13 11:00:44;;;;;;;4.22;1.70;;;;;;;19.23;80.86;100716.75;7390096;19;20392;-81
2022/09/13 11:03:38;;;;;;;4.95;1.90;;;;;;;19.26;80.51;100717.34;7390090;19;20006;-82
2022/09/13 11:06:41;;;;;;;8.13;1.77;;;;;;;19.26;81.47;100710.16;7389089;19;20026;-82
2022/09/13 11:09:26;;;;;;;7.43;1.60;;;;;;;19.26;82.15;100709.34;7390927;19;20011;-81
2022/09/13 11:12:11;;;;;;;4.80;2.05;;;;;;;19.27;82.49;100701.13;7392621;19;20040;-81
2022/09/13 11:14:57;;;;;;;7.25;2.35;;;;;;;19.31;83.06;100707.69;7392152;19;20397;-82
2022/09/13 11:17:42;;;;;;;7.43;1.55;;;;;;;19.34;83.74;100706.44;7391163;19;20014;-81
2022/09/13 11:20:26;;;;;;;7.53;1.50;;;;;;;19.38;81.10;100705.00;7392843;19;20035;-80
2022/09/13 11:23:02;;;;;;;7.63;1.50;;;;;;;19.36;81.88;100709.72;7394421;19;20015;-82
2022/09/13 11:25:38;;;;;;;7.00;1.58;;;;;;;19.37;83.10;100717.50;7390001;19;20017;-82
2022/09/13 11:28:32;;;;;;;7.65;2.40;;;;;;;19.38;82.98;100707.66;7389358;19;20019;-82
2022/09/13 11:31:05;;;;;;;16.17;2.20;;;;;;;19.39;83.46;100703.97;7391861;19;20362;-82
2022/09/13 11:33:32;;;;;;;;;;;;;;;19.41;83.08;100704.53;7391578;19;20010;-81
2022/09/13 11:36:25;;;;;;;4.80;1.58;;;;;;;19.37;83.66;100698.81;7389908;19;19911;-81
2022/09/13 11:39:07;;;;;;;;;;;;;;;19.41;83.95;100702.69;7390348;19;20386;-81
2022/09/13 11:42:03;;;;;;;4.72;1.45;;;;;;;19.38;83.31;100707.66;7388820;19;20268;-82
2022/09/13 11:45:15;;;;;;;4.72;2.00;;;;;;;19.35;83.10;100703.53;7388992;19;20040;-81
2022/09/13 11:48:24;;;;;;;7.72;2.05;;;;;;;19.38;83.00;100710.31;7389399;19;20017;-81
2022/09/13 11:51:11;;;;;;;4.53;1.92;;;;;;;19.42;83.28;100709.69;7388410;19;20737;-82
2022/09/13 11:53:51;;;;;;;5.10;1.88;;;;;;;19.43;82.62;100716.66;7390766;19;20035;-81
2022/09/13 11:56:31;;;;;;;4.70;1.60;;;;;;;19.53;80.28;100716.22;7387283;19;20018;-81
2022/09/13 11:59:13;;;;;;;4.35;1.90;;;;;;;19.51;79.87;100710.28;7387802;19;20015;-81
2022/09/13 12:01:48;;;;;;;4.78;1.55;;;;;;;19.46;80.55;100726.09;7390446;19;20010;-83